createdAt,value
2024-01-20T00:01:54.177Z,82.47
2024-01-20T00:04:23.145Z,82.40
2024-01-20T00:06:51.985Z,82.42
2024-01-20T00:09:28.933Z,82.14
2024-01-20T00:12:05.616Z,82.41
2024-01-20T00:14:33.714Z,82.51
2024-01-20T00:17:09.105Z,82.71
2024-01-20T00:19:47.100Z,82.95
2024-01-20T00:22:19.016Z,83.59
2024-01-20T00:24:46.384Z,83.67
2024-01-20T00:27:15.276Z,83.89
2024-01-20T00:29:45.410Z,83.94
2024-01-20T00:32:15.141Z,84.31
2024-01-20T00:34:55.389Z,84.82
2024-01-20T00:37:31.940Z,85.53
2024-01-20T00:40:01.955Z,85.83
2024-01-20T00:42:30.425Z,85.85
2024-01-20T00:44:59.271Z,86.08
2024-01-20T00:47:26.774Z,86.21
2024-01-20T00:49:54.762Z,86.45
2024-01-20T00:52:23.308Z,86.62
2024-01-20T00:54:52.515Z,86.87
2024-01-20T00:57:23.220Z,87.17
2024-01-20T00:59:51.212Z,87.51
2024-01-20T01:02:20.519Z,87.54
2024-01-20T01:04:50.182Z,87.68
2024-01-20T01:07:19.575Z,87.27
2024-01-20T01:09:50.051Z,87.02
2024-01-20T01:12:19.752Z,87.23
2024-01-20T01:14:48.137Z,87.19
2024-01-20T01:17:18.516Z,87.28
2024-01-20T01:19:52.276Z,87.21
2024-01-20T01:22:19.628Z,86.94
2024-01-20T01:24:52.058Z,86.84
2024-01-20T01:27:27.588Z,86.93
2024-01-20T01:29:54.655Z,87.12
2024-01-20T01:32:26.953Z,87.37
2024-01-20T01:34:56.080Z,87.34
2024-01-20T01:37:24.251Z,87.59
2024-01-20T01:39:53.809Z,87.46
2024-01-20T01:42:24.128Z,87.37
2024-01-20T01:44:54.106Z,87.30
2024-01-20T01:47:22.066Z,87.34
2024-01-20T01:49:51.936Z,87.31
2024-01-20T01:52:19.067Z,87.31
2024-01-20T01:54:47.182Z,87.16
2024-01-20T01:57:16.910Z,87.08
2024-01-20T01:59:46.969Z,86.85
2024-01-20T02:02:15.189Z,86.75
2024-01-20T02:04:42.601Z,86.71
2024-01-20T02:07:12.108Z,86.73
2024-01-20T02:09:44.921Z,86.79
2024-01-20T02:12:12.126Z,86.57
2024-01-20T02:14:42.563Z,86.57
2024-01-20T02:17:14.880Z,86.66
2024-01-20T02:19:44.368Z,86.88
2024-01-20T02:22:16.255Z,86.83
2024-01-20T02:24:51.564Z,86.77
2024-01-20T02:27:20.848Z,86.67
2024-01-20T02:29:49.488Z,86.58
2024-01-20T02:32:23.894Z,86.71
2024-01-20T02:34:51.712Z,86.46
2024-01-20T02:37:21.466Z,86.34
2024-01-20T02:39:51.106Z,86.34
2024-01-20T02:42:19.323Z,86.48
2024-01-20T02:44:47.384Z,86.48
2024-01-20T02:47:14.516Z,86.49
2024-01-20T02:49:43.914Z,86.46
2024-01-20T02:52:12.917Z,86.32
2024-01-20T02:54:42.907Z,86.31
2024-01-20T02:57:13.211Z,86.09
2024-01-20T02:59:40.429Z,85.99
2024-01-20T03:02:12.862Z,86.08
2024-01-20T03:04:41.201Z,86.18
2024-01-20T03:07:11.820Z,86.15
2024-01-20T03:09:41.111Z,86.21
2024-01-20T03:12:10.602Z,86.01
2024-01-20T03:14:39.893Z,86.09
2024-01-20T03:17:09.119Z,85.94
2024-01-20T03:19:36.563Z,85.89
2024-01-20T03:22:03.613Z,85.71
2024-01-20T03:24:32.015Z,85.46
2024-01-20T03:27:04.513Z,85.23
2024-01-20T03:29:32.628Z,85.18
2024-01-20T03:32:03.488Z,85.08
2024-01-20T03:34:34.374Z,85.32
2024-01-20T03:37:04.782Z,85.41
2024-01-20T03:39:32.695Z,85.47
2024-01-20T03:42:00.150Z,85.39
2024-01-20T03:44:30.555Z,85.31
2024-01-20T03:46:58.340Z,85.14
2024-01-20T03:49:29.583Z,85.34
2024-01-20T03:52:02.645Z,85.27
2024-01-20T03:54:29.980Z,85.43
2024-01-20T03:56:57.880Z,85.76
2024-01-20T03:59:32.901Z,85.78
2024-01-20T04:02:04.587Z,85.70
2024-01-20T04:04:33.583Z,85.81
2024-01-20T04:07:01.612Z,85.77
2024-01-20T04:09:28.648Z,84.93
2024-01-20T04:11:57.759Z,84.53
2024-01-20T04:14:27.841Z,84.88
2024-01-20T04:17:06.169Z,85.25
2024-01-20T04:19:33.387Z,85.27
2024-01-20T04:22:01.386Z,84.90
2024-01-20T04:24:32.120Z,84.27
2024-01-20T04:27:06.399Z,84.27
2024-01-20T04:29:37.322Z,84.25
2024-01-20T04:32:07.305Z,84.11
2024-01-20T04:34:38.001Z,84.06
2024-01-20T04:37:08.496Z,84.22
2024-01-20T04:39:39.334Z,84.41
2024-01-20T04:42:08.727Z,84.59
2024-01-20T04:44:38.444Z,84.80
2024-01-20T04:47:07.143Z,84.76
2024-01-20T04:49:37.099Z,84.78
2024-01-20T04:52:05.028Z,84.64
2024-01-20T04:54:32.651Z,84.36
2024-01-20T04:57:00.740Z,83.96
2024-01-20T04:59:28.055Z,83.65
2024-01-20T05:01:56.771Z,83.56
2024-01-20T05:04:23.874Z,83.50
2024-01-20T05:06:53.038Z,83.39
2024-01-20T05:09:23.766Z,83.34
2024-01-20T05:11:50.974Z,82.79
2024-01-20T05:14:18.863Z,83.14
2024-01-20T05:16:47.913Z,83.54
2024-01-20T05:19:15.357Z,83.74
2024-01-20T05:21:43.252Z,83.87
2024-01-20T05:24:11.726Z,84.09
2024-01-20T05:26:39.504Z,84.11
2024-01-20T05:29:15.307Z,84.12
2024-01-20T05:31:42.691Z,84.27
2024-01-20T05:34:10.098Z,84.38
2024-01-20T05:36:39.552Z,84.47
2024-01-20T05:39:07.707Z,84.11
2024-01-20T05:41:46.426Z,83.98
2024-01-20T05:44:16.361Z,83.89
2024-01-20T05:46:43.795Z,83.32
2024-01-20T05:49:12.422Z,83.14
2024-01-20T05:51:43.414Z,82.91
2024-01-20T05:54:13.819Z,83.19
2024-01-20T05:56:41.293Z,83.48
2024-01-20T05:59:09.230Z,83.66
2024-01-20T06:01:37.759Z,84.10
2024-01-20T06:04:08.573Z,84.23
2024-01-20T06:06:37.941Z,84.45
2024-01-20T06:09:06.235Z,84.10
2024-01-20T06:11:36.008Z,84.23
2024-01-20T06:14:07.093Z,84.27
2024-01-20T06:16:40.345Z,84.33
2024-01-20T06:19:11.948Z,84.58
2024-01-20T06:21:40.316Z,85.05
2024-01-20T06:24:09.622Z,85.16
2024-01-20T06:26:46.702Z,85.34
2024-01-20T06:29:14.354Z,85.38
2024-01-20T06:31:43.673Z,85.30
2024-01-20T06:34:14.185Z,85.60
2024-01-20T06:36:46.784Z,85.61
2024-01-20T06:39:16.982Z,85.72
2024-01-20T06:41:47.352Z,85.60
2024-01-20T06:44:14.704Z,85.61
2024-01-20T06:46:50.015Z,85.75
2024-01-20T06:49:17.402Z,85.58
2024-01-20T06:51:46.384Z,85.71
2024-01-20T06:54:19.241Z,85.59
2024-01-20T06:56:51.788Z,85.60
2024-01-20T06:59:20.398Z,85.45
2024-01-20T07:01:51.202Z,85.36
2024-01-20T07:04:20.751Z,85.08
2024-01-20T07:06:50.654Z,84.94
2024-01-20T07:09:20.144Z,85.15
2024-01-20T07:11:49.246Z,84.98
2024-01-20T07:14:17.233Z,84.88
2024-01-20T07:16:45.426Z,85.06
2024-01-20T07:19:13.620Z,85.20
2024-01-20T07:21:47.104Z,85.14
2024-01-20T07:24:14.731Z,85.16
2024-01-20T07:26:49.327Z,85.33
2024-01-20T07:29:22.012Z,85.35
2024-01-20T07:31:51.938Z,85.20
2024-01-20T07:34:21.455Z,85.30
2024-01-20T07:36:50.303Z,85.38
2024-01-20T07:39:22.012Z,85.57
2024-01-20T07:41:51.911Z,85.95
2024-01-20T07:44:20.680Z,86.04
2024-01-20T07:46:49.876Z,85.77
2024-01-20T07:49:26.986Z,85.51
2024-01-20T07:51:54.821Z,85.89
2024-01-20T07:54:23.813Z,86.17
2024-01-20T07:56:54.036Z,86.00
2024-01-20T07:59:24.636Z,86.40
2024-01-20T08:01:51.884Z,86.01
2024-01-20T08:04:19.790Z,85.55
2024-01-20T08:06:56.266Z,85.18
2024-01-20T08:09:25.788Z,85.28
2024-01-20T08:11:57.200Z,85.57
2024-01-20T08:14:25.726Z,85.69
2024-01-20T08:16:58.091Z,85.46
2024-01-20T08:19:34.171Z,85.44
2024-01-20T08:22:04.493Z,85.08
2024-01-20T08:24:35.946Z,84.42
2024-01-20T08:27:12.541Z,84.13
2024-01-20T08:29:51.128Z,84.05
2024-01-20T08:32:24.459Z,83.55
2024-01-20T08:34:57.299Z,83.76
2024-01-20T08:37:51.074Z,83.41
2024-01-20T08:40:27.314Z,82.67
2024-01-20T08:43:08.176Z,82.80
2024-01-20T08:45:37.803Z,82.69
2024-01-20T08:48:08.862Z,81.87
2024-01-20T08:50:58.042Z,81.28
2024-01-20T08:53:34.554Z,80.73
2024-01-20T08:56:05.195Z,80.84
2024-01-20T08:58:45.462Z,81.25
2024-01-20T09:01:15.225Z,81.24
2024-01-20T09:03:45.075Z,81.08
2024-01-20T09:06:13.438Z,81.43
2024-01-20T09:08:43.358Z,80.51
2024-01-20T09:11:12.628Z,79.58
2024-01-20T09:13:45.669Z,79.96
2024-01-20T09:16:23.838Z,79.86
2024-01-20T09:19:14.773Z,80.09
2024-01-20T09:21:53.267Z,79.97
2024-01-20T09:24:43.387Z,78.48
2024-01-20T09:27:13.238Z,79.09
2024-01-20T09:29:45.177Z,78.33
2024-01-20T09:32:43.099Z,77.89
2024-01-20T09:35:19.123Z,78.15
2024-01-20T09:37:47.873Z,77.52
2024-01-20T09:40:16.118Z,77.81
2024-01-20T09:42:45.284Z,76.72
2024-01-20T09:45:18.534Z,77.45
2024-01-20T09:47:46.026Z,77.11
2024-01-20T09:50:13.257Z,78.10
2024-01-20T09:52:48.553Z,77.52
2024-01-20T09:55:15.634Z,78.12
2024-01-20T09:57:51.877Z,77.12
2024-01-20T10:00:25.462Z,77.66
2024-01-20T10:03:03.316Z,77.76
2024-01-20T10:05:54.303Z,77.24
2024-01-20T10:08:43.840Z,76.45
2024-01-20T10:11:19.002Z,77.55
2024-01-20T10:13:49.829Z,77.69
2024-01-20T10:16:19.458Z,78.40
2024-01-20T10:19:00.312Z,78.61
2024-01-20T10:21:37.918Z,77.16
2024-01-20T10:24:11.640Z,77.04
2024-01-20T10:27:05.009Z,76.80
2024-01-20T10:29:34.110Z,77.10
2024-01-20T10:32:08.106Z,77.00
2024-01-20T10:34:51.154Z,76.52
2024-01-20T10:37:37.288Z,76.18
2024-01-20T10:40:23.567Z,75.89
2024-01-20T10:42:58.344Z,74.83
2024-01-20T10:45:27.632Z,74.89
2024-01-20T10:48:02.072Z,75.66
2024-01-20T10:50:31.267Z,75.36
2024-01-20T10:53:04.296Z,74.33
2024-01-20T10:55:37.977Z,75.15
2024-01-20T10:58:11.978Z,76.12
2024-01-20T11:00:44.129Z,76.06
2024-01-20T11:03:20.251Z,75.25
2024-01-20T11:05:50.964Z,75.70
2024-01-20T11:08:28.203Z,75.90
2024-01-20T11:11:00.052Z,76.07
2024-01-20T11:13:36.111Z,75.77
2024-01-20T11:16:06.923Z,75.16
2024-01-20T11:18:41.942Z,74.68
2024-01-20T11:21:36.741Z,74.62
2024-01-20T11:24:10.417Z,74.13
2024-01-20T11:26:52.198Z,73.17
2024-01-20T11:29:27.067Z,73.25
2024-01-20T11:32:01.526Z,73.50
2024-01-20T11:34:36.869Z,73.87
2024-01-20T11:37:27.348Z,74.80
2024-01-20T11:40:41.338Z,75.03
2024-01-20T11:43:15.765Z,75.42
2024-01-20T11:45:47.912Z,76.56
2024-01-20T11:48:27.791Z,76.77
2024-01-20T11:50:58.676Z,76.78
2024-01-20T11:53:49.911Z,77.16
2024-01-20T11:56:21.617Z,76.57
2024-01-20T11:58:51.085Z,76.67
2024-01-20T12:01:26.225Z,76.48
2024-01-20T12:04:03.423Z,77.03
2024-01-20T12:06:43.660Z,76.68
2024-01-20T12:09:18.496Z,76.69
2024-01-20T12:12:03.429Z,77.28
2024-01-20T12:14:37.889Z,78.02
2024-01-20T12:17:09.057Z,77.95
2024-01-20T12:19:47.924Z,78.18
2024-01-20T12:22:23.797Z,77.83
2024-01-20T12:24:52.899Z,77.87
2024-01-20T12:27:22.022Z,78.07
2024-01-20T12:29:55.661Z,78.24
2024-01-20T12:32:29.236Z,78.36
2024-01-20T12:35:01.043Z,78.32
2024-01-20T12:37:31.322Z,78.82
2024-01-20T12:40:03.425Z,79.09
2024-01-20T12:42:41.736Z,79.22
2024-01-20T12:45:20.996Z,79.03
2024-01-20T12:47:52.462Z,78.97
2024-01-20T12:50:23.965Z,79.31
2024-01-20T12:52:54.253Z,79.55
2024-01-20T12:55:26.368Z,79.51
2024-01-20T12:57:55.560Z,79.42
2024-01-20T13:00:25.140Z,79.57
2024-01-20T13:02:54.879Z,79.43
2024-01-20T13:05:23.967Z,79.32
2024-01-20T13:08:06.761Z,79.49
2024-01-20T13:10:37.931Z,79.18
2024-01-20T13:13:14.069Z,79.35
2024-01-20T13:15:46.297Z,79.46
2024-01-20T13:18:28.680Z,79.55
2024-01-20T13:21:00.454Z,79.69
2024-01-20T13:23:33.193Z,79.73
2024-01-20T13:26:11.231Z,79.92
2024-01-20T13:28:43.652Z,79.89
2024-01-20T13:31:15.376Z,79.73
2024-01-20T13:33:55.933Z,79.65
2024-01-20T13:36:25.209Z,79.68
2024-01-20T13:38:57.334Z,79.66
2024-01-20T13:41:37.509Z,79.53
2024-01-20T13:44:21.264Z,79.65
2024-01-20T13:46:53.443Z,79.75
2024-01-20T13:49:25.240Z,79.38
2024-01-20T13:51:58.382Z,79.46
2024-01-20T13:54:34.818Z,79.32
2024-01-20T13:57:08.823Z,79.26
2024-01-20T13:59:38.384Z,79.61
2024-01-20T14:02:17.276Z,79.75
2024-01-20T14:04:53.675Z,79.96
2024-01-20T14:07:32.514Z,80.18
2024-01-20T14:10:03.395Z,79.84
2024-01-20T14:13:02.724Z,79.88
2024-01-20T14:15:33.240Z,80.08
2024-01-20T14:18:23.220Z,80.23
2024-01-20T14:21:02.048Z,80.38
2024-01-20T14:23:36.803Z,80.53
2024-01-20T14:26:08.411Z,80.44
2024-01-20T14:28:41.542Z,80.72
2024-01-20T14:31:14.134Z,81.03
2024-01-20T14:33:47.841Z,80.85
2024-01-20T14:36:41.944Z,81.06
2024-01-20T14:39:14.926Z,81.13
2024-01-20T14:41:47.472Z,80.86
2024-01-20T14:44:19.272Z,80.95
2024-01-20T14:46:51.575Z,80.93
2024-01-20T14:49:23.804Z,81.25
2024-01-20T14:51:53.077Z,81.05
2024-01-20T14:54:23.659Z,81.11
2024-01-20T14:56:56.791Z,81.43
2024-01-20T14:59:26.868Z,81.38
2024-01-20T15:01:59.193Z,81.37
2024-01-20T15:04:30.698Z,80.57
2024-01-20T15:07:08.588Z,79.98
2024-01-20T15:09:44.998Z,79.24
2024-01-20T15:12:34.065Z,78.57
2024-01-20T15:15:19.777Z,78.18
2024-01-20T15:17:51.303Z,78.15
2024-01-20T15:20:22.161Z,78.29
2024-01-20T15:22:54.742Z,78.34
2024-01-20T15:25:42.633Z,78.61
2024-01-20T15:28:14.847Z,78.74
2024-01-20T15:30:46.859Z,78.46
2024-01-20T15:33:21.096Z,78.85
2024-01-20T15:35:53.549Z,78.48
2024-01-20T15:38:45.152Z,78.03
2024-01-20T15:41:17.895Z,77.96
2024-01-20T15:43:52.034Z,77.86
2024-01-20T15:46:27.668Z,77.76
2024-01-20T15:48:57.860Z,77.76
2024-01-20T15:51:30.979Z,77.80
2024-01-20T15:54:05.190Z,77.65
2024-01-20T15:56:35.670Z,77.54
2024-01-20T15:59:26.674Z,77.62
2024-01-20T16:01:57.128Z,77.73
2024-01-20T16:04:27.999Z,77.60
2024-01-20T16:06:59.638Z,77.41
2024-01-20T16:09:33.547Z,77.68
2024-01-20T16:12:07.927Z,77.91
2024-01-20T16:14:38.303Z,77.73
2024-01-20T16:17:10.086Z,77.74
2024-01-20T16:19:43.790Z,77.52
2024-01-20T16:22:35.966Z,77.60
2024-01-20T16:25:08.485Z,77.86
2024-01-20T16:27:46.050Z,78.30
2024-01-20T16:30:19.231Z,78.38
2024-01-20T16:37:14.933Z,78.26
2024-01-20T16:39:44.871Z,77.93
2024-01-20T16:42:14.942Z,78.63
2024-01-20T16:45:02.601Z,78.82
2024-01-20T16:47:31.075Z,79.36
2024-01-20T16:50:04.276Z,79.27
2024-01-20T16:52:33.607Z,79.29
2024-01-20T16:55:14.741Z,78.93
2024-01-20T16:57:49.669Z,78.93
2024-01-20T17:00:19.025Z,78.84
2024-01-20T17:02:48.571Z,79.05
2024-01-20T17:05:18.121Z,79.04
2024-01-20T17:07:49.996Z,79.02
2024-01-20T17:10:21.664Z,78.92
2024-01-20T17:12:56.364Z,78.92
2024-01-20T17:15:30.069Z,78.92
2024-01-20T17:18:00.529Z,78.70
2024-01-20T17:20:30.348Z,78.66
2024-01-20T17:23:02.090Z,78.63
2024-01-20T17:25:33.279Z,78.60
2024-01-20T17:28:04.260Z,78.39
2024-01-20T17:30:35.520Z,78.34
2024-01-20T17:33:05.296Z,78.42
2024-01-20T17:35:42.737Z,78.22
2024-01-20T17:38:12.794Z,78.08
2024-01-20T17:40:50.296Z,78.07
2024-01-20T17:43:20.329Z,77.92
2024-01-20T17:46:15.209Z,77.80
2024-01-20T17:48:46.216Z,77.69
2024-01-20T17:51:35.433Z,77.48
2024-01-20T17:54:09.379Z,77.38
2024-01-20T17:56:38.060Z,77.46
2024-01-20T17:59:07.117Z,77.39
2024-01-20T18:01:35.070Z,77.52
2024-01-20T18:04:06.786Z,77.68
2024-01-20T18:06:35.624Z,77.78
2024-01-20T18:09:02.881Z,78.10
2024-01-20T18:11:31.201Z,77.81
2024-01-20T18:14:00.431Z,77.34
2024-01-20T18:16:30.649Z,77.42
2024-01-20T18:18:58.236Z,77.52
2024-01-20T18:21:28.206Z,77.63
2024-01-20T18:23:57.379Z,77.66
2024-01-20T18:26:25.864Z,77.66
2024-01-20T18:28:57.150Z,77.80
2024-01-20T18:31:25.425Z,78.04
2024-01-20T18:33:55.908Z,78.29
2024-01-20T18:36:26.326Z,78.37
2024-01-20T18:38:56.330Z,78.06
2024-01-20T18:41:28.979Z,77.89
2024-01-20T18:43:57.144Z,77.77
2024-01-20T18:46:24.173Z,77.49
2024-01-20T18:48:51.839Z,78.08
2024-01-20T18:51:22.454Z,78.39
2024-01-20T18:53:53.754Z,78.92
2024-01-20T18:56:20.975Z,79.23
2024-01-20T18:58:48.088Z,79.26
2024-01-20T19:01:17.641Z,79.49
2024-01-20T19:03:47.026Z,79.58
2024-01-20T19:06:30.608Z,79.88
2024-01-20T19:09:01.463Z,79.77
2024-01-20T19:11:28.962Z,80.01
2024-01-20T19:14:01.492Z,80.02
2024-01-20T19:16:34.012Z,79.94
2024-01-20T19:19:04.672Z,80.08
2024-01-20T19:21:31.834Z,80.24
2024-01-20T19:23:59.689Z,80.08
2024-01-20T19:26:26.718Z,80.14
2024-01-20T19:28:53.993Z,80.26
2024-01-20T19:31:24.314Z,80.25
2024-01-20T19:33:54.655Z,80.36
2024-01-20T19:36:21.831Z,80.60
2024-01-20T19:38:49.623Z,80.58
2024-01-20T19:41:16.858Z,80.74
2024-01-20T19:43:44.497Z,80.78
2024-01-20T19:46:14.485Z,80.80
2024-01-20T19:48:41.609Z,80.81
2024-01-20T19:51:10.536Z,80.95
2024-01-20T19:53:40.007Z,80.83
2024-01-20T19:56:13.096Z,80.78
2024-01-20T19:58:40.214Z,80.92
2024-01-20T20:01:07.602Z,80.77
2024-01-20T20:03:36.792Z,80.74
2024-01-20T20:06:04.314Z,80.75
2024-01-20T20:08:34.118Z,80.60
2024-01-20T20:11:05.797Z,80.67
2024-01-20T20:13:36.094Z,80.82
2024-01-20T20:16:12.840Z,80.44
2024-01-20T20:18:41.585Z,80.50
2024-01-20T20:21:14.977Z,81.01
2024-01-20T20:23:42.835Z,80.86
2024-01-20T20:26:13.176Z,80.55
2024-01-20T20:28:44.228Z,80.55
2024-01-20T20:31:16.429Z,80.07
2024-01-20T20:33:43.817Z,79.82
2024-01-20T20:36:11.630Z,79.69
2024-01-20T20:38:43.052Z,79.79
2024-01-20T20:41:13.191Z,79.76
2024-01-20T20:43:42.515Z,79.89
2024-01-20T20:46:10.425Z,79.92
2024-01-20T20:48:37.534Z,79.94
2024-01-20T20:51:08.453Z,79.89
2024-01-20T20:53:36.817Z,80.03
2024-01-20T20:56:04.265Z,80.01
2024-01-20T20:58:31.621Z,80.24
2024-01-20T21:01:02.545Z,80.21
2024-01-20T21:03:32.321Z,80.06
2024-01-20T21:06:00.262Z,79.88
2024-01-20T21:08:32.343Z,79.88
2024-01-20T21:10:59.774Z,79.83
2024-01-20T21:13:29.787Z,79.93
2024-01-20T21:16:01.311Z,79.77
2024-01-20T21:18:31.690Z,79.68
2024-01-20T21:21:01.315Z,79.61
2024-01-20T21:23:29.464Z,79.60
2024-01-20T21:25:57.205Z,79.65
2024-01-20T21:28:27.091Z,79.53
2024-01-20T21:30:55.303Z,79.41
2024-01-20T21:33:27.791Z,79.40
2024-01-20T21:36:00.236Z,79.45
2024-01-20T21:38:31.068Z,79.08
2024-01-20T21:40:58.366Z,78.93
2024-01-20T21:43:28.511Z,78.62
2024-01-20T21:45:55.714Z,78.74
2024-01-20T21:48:25.581Z,78.61
2024-01-20T21:50:56.846Z,78.59
2024-01-20T21:53:26.794Z,78.40
2024-01-20T21:55:57.679Z,78.58
2024-01-20T21:58:25.503Z,78.60
2024-01-20T22:00:54.204Z,78.50
2024-01-20T22:03:22.142Z,78.61
2024-01-20T22:05:49.260Z,78.47
2024-01-20T22:08:22.825Z,78.61
2024-01-20T22:11:10.432Z,78.80
2024-01-20T22:13:39.465Z,78.74
2024-01-20T22:16:09.579Z,78.71
2024-01-20T22:18:37.392Z,78.64
2024-01-20T22:21:16.230Z,78.79
2024-01-20T22:23:46.397Z,78.53
2024-01-20T22:26:20.169Z,78.20
2024-01-20T22:28:47.160Z,78.05
2024-01-20T22:31:15.089Z,78.20
2024-01-20T22:33:43.289Z,77.93
2024-01-20T22:36:13.091Z,77.99
2024-01-20T22:38:40.430Z,77.94
2024-01-20T22:41:09.938Z,77.99
2024-01-20T22:43:39.486Z,78.02
2024-01-20T22:46:16.034Z,78.07
2024-01-20T22:48:44.881Z,77.95
2024-01-20T22:51:21.969Z,77.97
2024-01-20T22:53:52.628Z,77.87
2024-01-20T22:56:23.810Z,77.81
2024-01-20T22:58:51.015Z,77.90
2024-01-20T23:01:21.649Z,77.97
2024-01-20T23:03:52.939Z,78.08
2024-01-20T23:06:22.232Z,77.95
2024-01-20T23:08:52.766Z,78.17
2024-01-20T23:11:19.857Z,77.89
2024-01-20T23:13:47.324Z,77.66
2024-01-20T23:16:14.470Z,77.68
2024-01-20T23:18:44.229Z,77.50
2024-01-20T23:21:13.934Z,77.54
2024-01-20T23:23:41.033Z,77.83
2024-01-20T23:26:13.511Z,77.87
2024-01-20T23:28:51.588Z,77.97
2024-01-20T23:31:22.912Z,78.02
2024-01-20T23:33:52.915Z,77.96
2024-01-20T23:36:21.061Z,77.48
2024-01-20T23:38:48.241Z,77.28
2024-01-20T23:41:16.420Z,77.57
2024-01-20T23:43:46.301Z,77.68
2024-01-20T23:46:15.006Z,77.69
2024-01-20T23:48:44.870Z,77.89
2024-01-20T23:51:16.219Z,77.94
2024-01-20T23:53:43.403Z,78.34
2024-01-20T23:56:12.916Z,78.21
2024-01-20T23:58:41.839Z,77.87
